Angie, Louisiana
Current Conditions -  °F | °C
As of 1:53 PM on Wednesday 17 Dec 2014 (Local Time) from KHBG Reporting Station
Clear Clear  
Wind Chill: 14°   Ceiling: Unl
Heat Index: 14°   Visibility: 10mi
Dew Point:   Wind: 3mph
Humidity: 49%   Direction: 350°N
Pressure: 30.21"   Gusts: NA
Location:  30.96°N, 89.82°W
Report Text: KHBG 171953Z AUTO 35003KT 10SM CLR 14/04 A3021 RMK AO2 SLP230 T01440039
Loading
Personal Weather Stations






























Interactive Weather Map New forecast layout! Learn more

10-Day Weather Forecast

Advertisements
Track Severe Weather on mobile